createdAt,value
2023-04-15T00:02:17.440Z,13.25
2023-04-15T00:04:48.667Z,13.57
2023-04-15T00:07:19.531Z,12.20
2023-04-15T00:09:51.961Z,10.73
2023-04-15T00:12:23.728Z,9.85
2023-04-15T00:14:53.536Z,10.02
2023-04-15T00:17:23.652Z,8.82
2023-04-15T00:19:53.336Z,10.40
2023-04-15T00:22:23.082Z,7.65
2023-04-15T00:24:52.958Z,9.45
2023-04-15T00:27:22.582Z,8.05
2023-04-15T00:29:52.276Z,8.68
2023-04-15T00:32:22.469Z,8.57
2023-04-15T00:34:52.637Z,9.20
2023-04-15T00:37:24.935Z,6.90
2023-04-15T00:39:54.634Z,7.95
2023-04-15T00:42:24.533Z,7.40
2023-04-15T00:44:56.591Z,8.05
2023-04-15T00:47:26.741Z,6.68
2023-04-15T00:49:56.323Z,7.50
2023-04-15T00:52:32.699Z,5.90
2023-04-15T00:55:06.505Z,6.32
2023-04-15T00:57:36.460Z,6.03
2023-04-15T01:00:09.536Z,6.10
2023-04-15T01:02:39.976Z,6.18
2023-04-15T01:05:10.123Z,5.43
2023-04-15T01:07:39.826Z,6.93
2023-04-15T01:10:10.081Z,6.13
2023-04-15T01:12:41.100Z,7.43
2023-04-15T01:15:12.566Z,6.43
2023-04-15T01:17:42.678Z,6.38
2023-04-15T01:20:13.827Z,7.18
2023-04-15T01:22:43.652Z,6.15
2023-04-15T01:25:18.402Z,6.03
2023-04-15T01:27:48.172Z,6.40
2023-04-15T01:30:17.967Z,6.35
2023-04-15T01:32:47.602Z,6.80
2023-04-15T01:35:17.213Z,6.85
2023-04-15T01:37:47.844Z,7.25
2023-04-15T01:40:18.165Z,6.50
2023-04-15T01:42:48.707Z,8.02
2023-04-15T01:45:19.069Z,7.88
2023-04-15T01:47:53.919Z,7.07
2023-04-15T01:50:23.560Z,7.70
2023-04-15T01:52:53.668Z,8.80
2023-04-15T01:55:26.598Z,8.27
2023-04-15T01:57:57.579Z,9.10
2023-04-15T02:00:27.337Z,8.18
2023-04-15T02:02:59.546Z,8.10
2023-04-15T02:05:29.354Z,7.60
2023-04-15T02:08:02.599Z,9.23
2023-04-15T02:10:32.730Z,8.85
2023-04-15T02:13:02.726Z,8.50
2023-04-15T02:15:32.478Z,8.23
2023-04-15T02:18:02.782Z,8.82
2023-04-15T02:20:35.903Z,9.02
2023-04-15T02:23:08.795Z,10.63
2023-04-15T02:25:53.423Z,10.40
2023-04-15T02:28:29.964Z,10.73
2023-04-15T02:31:01.349Z,11.05
2023-04-15T02:33:34.128Z,11.60
2023-04-15T02:36:03.985Z,11.90
2023-04-15T02:38:34.580Z,11.00
2023-04-15T02:41:04.538Z,12.98
2023-04-15T02:43:36.794Z,12.43
2023-04-15T02:46:09.322Z,12.40
2023-04-15T02:48:45.049Z,12.00
2023-04-15T02:51:21.219Z,11.98
2023-04-15T02:53:51.582Z,12.68
2023-04-15T02:56:21.310Z,12.70
2023-04-15T02:58:52.327Z,13.38
2023-04-15T03:01:22.151Z,12.25
2023-04-15T03:03:51.940Z,12.50
2023-04-15T03:06:21.666Z,13.35
2023-04-15T03:08:58.613Z,12.88
2023-04-15T03:11:35.406Z,12.40
2023-04-15T03:14:06.019Z,14.20
2023-04-15T03:16:35.788Z,12.55
2023-04-15T03:19:05.631Z,14.60
2023-04-15T03:21:35.245Z,13.65
2023-04-15T03:24:05.081Z,13.35
2023-04-15T03:26:34.935Z,11.85
2023-04-15T03:29:13.354Z,11.63
2023-04-15T03:31:46.105Z,11.82
2023-04-15T03:34:18.809Z,11.52
2023-04-15T03:36:49.114Z,13.60
2023-04-15T03:39:21.977Z,11.02
2023-04-15T03:41:51.769Z,13.18
2023-04-15T03:44:21.524Z,12.40
2023-04-15T03:46:51.184Z,11.52
2023-04-15T03:49:21.431Z,13.07
2023-04-15T03:51:51.138Z,13.13
2023-04-15T03:54:24.304Z,12.25
2023-04-15T03:56:54.024Z,12.77
2023-04-15T03:59:23.842Z,13.23
2023-04-15T04:01:53.811Z,12.30
2023-04-15T04:04:25.748Z,12.30
2023-04-15T04:06:55.409Z,10.68
2023-04-15T04:09:25.149Z,11.90
2023-04-15T04:11:54.882Z,11.50
2023-04-15T04:14:32.993Z,11.77
2023-04-15T04:17:06.007Z,12.38
2023-04-15T04:19:38.873Z,11.68
2023-04-15T04:22:08.766Z,12.85
2023-04-15T04:24:38.452Z,13.05
2023-04-15T04:27:08.170Z,11.43
2023-04-15T04:29:37.789Z,13.07
2023-04-15T04:32:07.757Z,11.63
2023-04-15T04:34:37.716Z,11.65
2023-04-15T04:37:08.854Z,11.30
2023-04-15T04:39:38.540Z,11.35
2023-04-15T04:42:08.143Z,12.30
2023-04-15T04:44:37.784Z,10.82
2023-04-15T04:47:10.255Z,10.82
2023-04-15T04:49:40.175Z,11.70
2023-04-15T04:52:09.788Z,11.50
2023-04-15T04:54:39.371Z,10.93
2023-04-15T04:57:09.717Z,9.30
2023-04-15T04:59:39.613Z,10.20
2023-04-15T05:02:09.819Z,10.80
2023-04-15T05:04:39.468Z,10.27
2023-04-15T05:07:09.788Z,11.88
2023-04-15T05:09:39.488Z,12.05
2023-04-15T05:12:10.572Z,11.45
2023-04-15T05:14:41.377Z,13.13
2023-04-15T05:17:11.298Z,12.02
2023-04-15T05:19:40.931Z,11.77
2023-04-15T05:22:10.819Z,13.60
2023-04-15T05:24:40.558Z,15.07
2023-04-15T05:27:14.710Z,13.55
2023-04-15T05:29:47.483Z,14.93
2023-04-15T05:32:17.259Z,14.15
2023-04-15T05:34:47.134Z,14.35
2023-04-15T05:37:17.258Z,13.23
2023-04-15T05:39:46.967Z,15.13
2023-04-15T05:42:17.080Z,15.45
2023-04-15T05:44:46.822Z,14.95
2023-04-15T05:47:19.544Z,15.57
2023-04-15T05:49:49.222Z,15.70
2023-04-15T05:52:19.001Z,15.25
2023-04-15T05:54:48.662Z,15.65
2023-04-15T05:57:18.340Z,15.95
2023-04-15T05:59:48.273Z,14.73
2023-04-15T06:02:17.995Z,16.98
2023-04-15T06:04:50.931Z,17.98
2023-04-15T06:07:20.672Z,18.10
2023-04-15T06:09:50.289Z,16.83
2023-04-15T06:12:20.011Z,17.65
2023-04-15T06:14:49.678Z,18.20
2023-04-15T06:17:22.709Z,18.55
2023-04-15T06:19:57.068Z,18.90
2023-04-15T06:22:29.905Z,19.05
2023-04-15T06:24:59.964Z,16.83
2023-04-15T06:27:30.292Z,15.07
2023-04-15T06:30:06.328Z,15.88
2023-04-15T06:32:39.242Z,16.52
2023-04-15T06:35:09.191Z,15.70
2023-04-15T06:37:38.842Z,14.80
2023-04-15T06:40:12.272Z,17.80
2023-04-15T06:42:42.197Z,15.88
2023-04-15T06:45:12.298Z,15.27
2023-04-15T06:47:43.407Z,15.40
2023-04-15T06:50:13.431Z,15.23
2023-04-15T06:52:43.443Z,14.85
2023-04-15T06:55:16.739Z,14.50
2023-04-15T06:57:46.606Z,15.73
2023-04-15T07:00:19.256Z,14.70
2023-04-15T07:02:51.523Z,16.13
2023-04-15T07:05:21.716Z,12.65
2023-04-15T07:07:52.780Z,14.93
2023-04-15T07:10:23.328Z,14.35
2023-04-15T07:12:59.180Z,14.55
2023-04-15T07:15:28.854Z,12.52
2023-04-15T07:17:58.675Z,13.27
2023-04-15T07:20:28.826Z,14.23
2023-04-15T07:22:59.078Z,13.95
2023-04-15T07:25:29.037Z,13.63
2023-04-15T07:27:58.757Z,13.57
2023-04-15T07:30:28.395Z,12.77
2023-04-15T07:33:01.325Z,11.85
2023-04-15T07:35:31.060Z,11.80
2023-04-15T07:38:03.864Z,12.10
2023-04-15T07:40:36.777Z,13.40
2023-04-15T07:43:06.887Z,12.77
2023-04-15T07:45:39.454Z,12.10
2023-04-15T07:48:09.950Z,12.63
2023-04-15T07:50:39.734Z,12.45
2023-04-15T07:53:09.923Z,11.95
2023-04-15T07:55:40.065Z,12.02
2023-04-15T07:58:09.788Z,11.88
2023-04-15T08:00:42.295Z,10.75
2023-04-15T08:03:12.125Z,11.18
2023-04-15T08:05:41.949Z,10.82
2023-04-15T08:08:12.013Z,10.65
2023-04-15T08:10:41.715Z,9.38
2023-04-15T08:13:11.312Z,11.13
2023-04-15T08:15:40.989Z,10.52
2023-04-15T08:18:10.849Z,10.00
2023-04-15T08:20:43.476Z,8.98
2023-04-15T08:23:13.134Z,8.25
2023-04-15T08:25:42.797Z,9.95
2023-04-15T08:28:12.937Z,10.13
2023-04-15T08:30:42.920Z,9.52
2023-04-15T08:33:12.664Z,9.30
2023-04-15T08:35:46.882Z,9.77
2023-04-15T08:38:16.542Z,8.50
2023-04-15T08:40:55.290Z,9.23
2023-04-15T08:43:28.206Z,9.48
2023-04-15T08:46:01.558Z,10.38
2023-04-15T08:48:37.418Z,9.77
2023-04-15T08:51:07.135Z,8.82
2023-04-15T08:53:37.040Z,10.50
2023-04-15T08:56:10.400Z,10.35
2023-04-15T08:58:41.259Z,11.68
2023-04-15T09:01:11.001Z,11.40
2023-04-15T09:03:41.532Z,12.40
2023-04-15T09:06:11.489Z,11.07
2023-04-15T09:08:41.136Z,11.80
2023-04-15T09:11:13.902Z,11.35
2023-04-15T09:13:46.485Z,10.68
2023-04-15T09:16:17.364Z,11.38
2023-04-15T09:18:47.236Z,10.73
2023-04-15T09:21:20.805Z,12.15
2023-04-15T09:24:04.488Z,11.10
2023-04-15T09:26:38.969Z,12.15
2023-04-15T09:29:16.039Z,12.15
2023-04-15T09:31:45.782Z,11.32
2023-04-15T09:34:15.361Z,11.50
2023-04-15T09:36:51.656Z,12.85
2023-04-15T09:39:21.579Z,12.02
2023-04-15T09:42:08.433Z,12.73
2023-04-15T09:44:38.247Z,13.07
2023-04-15T09:47:08.486Z,13.02
2023-04-15T09:49:38.583Z,13.70
2023-04-15T09:52:08.256Z,15.57
2023-04-15T09:54:41.297Z,13.50
2023-04-15T09:57:14.925Z,17.77
2023-04-15T09:59:45.323Z,16.23
2023-04-15T10:02:16.317Z,17.30
2023-04-15T10:04:46.488Z,17.92
2023-04-15T10:07:16.408Z,18.10
2023-04-15T10:09:50.723Z,17.48
2023-04-15T10:12:20.872Z,17.98
2023-04-15T10:15:01.885Z,19.08
2023-04-15T10:17:38.574Z,18.48
2023-04-15T10:20:09.264Z,18.42
2023-04-15T10:22:39.277Z,19.35
2023-04-15T10:25:09.369Z,19.35
2023-04-15T10:27:39.036Z,18.88
2023-04-15T10:30:09.396Z,18.27
2023-04-15T10:32:43.024Z,19.25
2023-04-15T10:35:21.972Z,21.50
2023-04-15T10:37:51.629Z,22.08
2023-04-15T10:40:33.038Z,18.67
2023-04-15T10:43:07.704Z,19.65
2023-04-15T10:48:11.082Z,21.60
2023-04-15T10:50:41.083Z,20.25
2023-04-15T10:53:23.553Z,20.30
2023-04-15T10:55:53.505Z,19.65
2023-04-15T10:58:29.037Z,22.60
2023-04-15T11:01:01.648Z,22.88
2023-04-15T11:03:42.427Z,20.83
2023-04-15T11:06:13.706Z,23.58
2023-04-15T11:09:00.799Z,22.63
2023-04-15T11:12:10.054Z,23.80
2023-04-15T11:14:47.652Z,22.50
2023-04-15T11:17:17.604Z,23.15
2023-04-15T11:19:47.309Z,21.30
2023-04-15T11:22:17.097Z,25.38
2023-04-15T11:24:56.616Z,25.85
2023-04-15T11:27:26.559Z,23.20
2023-04-15T11:29:56.229Z,21.02
2023-04-15T11:32:31.942Z,22.17
2023-04-15T11:35:01.690Z,20.95
2023-04-15T11:37:33.187Z,23.35
2023-04-15T11:40:05.898Z,24.02
2023-04-15T11:42:49.065Z,23.27
2023-04-15T11:45:18.951Z,23.98
2023-04-15T11:47:55.306Z,24.67
2023-04-15T11:50:29.033Z,23.70
2023-04-15T11:53:08.145Z,24.13
2023-04-15T11:55:54.938Z,25.10
2023-04-15T11:58:29.394Z,20.48
2023-04-15T12:01:09.379Z,24.55
2023-04-15T12:03:48.432Z,26.13
2023-04-15T12:06:25.270Z,22.30
2023-04-15T12:08:57.666Z,26.70
2023-04-15T12:11:35.419Z,26.60
2023-04-15T12:14:32.079Z,24.25
2023-04-15T12:17:08.437Z,26.83
2023-04-15T12:19:50.398Z,24.85
2023-04-15T12:22:21.496Z,20.83
2023-04-15T12:24:58.959Z,24.42
2023-04-15T12:27:30.007Z,25.23
2023-04-15T12:30:09.633Z,24.42
2023-04-15T12:32:40.458Z,23.17
2023-04-15T12:35:11.968Z,23.30
2023-04-15T12:37:44.585Z,26.00
2023-04-15T12:40:14.327Z,24.73
2023-04-15T12:42:43.967Z,26.92
2023-04-15T12:45:16.347Z,27.02
2023-04-15T12:47:46.089Z,28.63
2023-04-15T12:50:15.846Z,25.33
2023-04-15T12:52:48.200Z,26.85
2023-04-15T12:55:18.836Z,22.13
2023-04-15T12:57:48.742Z,26.95
2023-04-15T13:00:21.075Z,26.40
2023-04-15T13:02:50.882Z,22.95
2023-04-15T13:05:20.913Z,27.38
2023-04-15T13:07:50.541Z,26.30
2023-04-15T13:10:20.312Z,26.60
2023-04-15T13:12:58.388Z,27.17
2023-04-15T13:15:28.057Z,27.88
2023-04-15T13:17:58.410Z,26.15
2023-04-15T13:20:29.054Z,28.73
2023-04-15T13:22:58.739Z,28.13
2023-04-15T13:25:28.632Z,29.60
2023-04-15T13:27:59.203Z,27.05
2023-04-15T13:30:43.406Z,25.80
2023-04-15T13:33:14.204Z,30.10
2023-04-15T13:35:44.706Z,26.98
2023-04-15T13:38:17.023Z,26.60
2023-04-15T13:40:46.974Z,28.80
2023-04-15T13:43:17.215Z,27.15
2023-04-15T13:45:48.415Z,29.83
2023-04-15T13:48:18.099Z,28.80
2023-04-15T13:50:47.820Z,28.40
2023-04-15T13:53:20.683Z,30.27
2023-04-15T13:56:06.747Z,31.30
2023-04-15T13:58:36.429Z,29.20
2023-04-15T14:01:09.302Z,28.77
2023-04-15T14:03:39.636Z,26.27
2023-04-15T14:06:09.810Z,30.27
2023-04-15T14:08:39.423Z,30.88
2023-04-15T14:11:12.023Z,29.10
2023-04-15T14:13:41.927Z,32.92
2023-04-15T14:16:11.619Z,32.35
2023-04-15T14:18:42.557Z,32.60
2023-04-15T14:21:15.339Z,31.67
2023-04-15T14:23:45.321Z,29.58
2023-04-15T14:26:15.740Z,33.72
2023-04-15T14:28:46.931Z,28.05
2023-04-15T14:31:16.758Z,32.67
2023-04-15T14:33:46.433Z,34.35
2023-04-15T14:36:16.029Z,35.55
2023-04-15T14:38:48.733Z,34.25
2023-04-15T14:41:19.009Z,33.65
2023-04-15T14:43:48.683Z,34.05
2023-04-15T14:46:18.610Z,30.30
2023-04-15T14:48:48.234Z,33.75
2023-04-15T14:51:18.771Z,32.83
2023-04-15T14:53:48.641Z,36.22
2023-04-15T14:56:18.296Z,34.10
2023-04-15T14:58:47.983Z,32.75
2023-04-15T15:01:17.886Z,33.50
2023-04-15T15:03:47.861Z,33.10
2023-04-15T15:06:17.959Z,31.92
2023-04-15T15:08:50.937Z,34.88
2023-04-15T15:11:20.600Z,33.28
2023-04-15T15:13:52.745Z,33.78
2023-04-15T15:16:25.471Z,34.78
2023-04-15T15:18:55.197Z,36.25
2023-04-15T15:21:25.379Z,37.45
2023-04-15T15:23:57.641Z,38.22
2023-04-15T15:26:29.917Z,36.88
2023-04-15T15:28:59.631Z,34.72
2023-04-15T15:31:29.493Z,36.00
2023-04-15T15:33:59.438Z,36.05
2023-04-15T15:36:29.777Z,39.03
2023-04-15T15:39:00.971Z,36.92
2023-04-15T15:41:31.613Z,38.80
2023-04-15T15:44:06.813Z,38.05
2023-04-15T15:46:36.572Z,36.72
2023-04-15T15:49:06.479Z,40.97
2023-04-15T15:51:39.292Z,40.85
2023-04-15T15:54:08.975Z,41.05
2023-04-15T15:56:39.989Z,37.92
2023-04-15T15:59:10.308Z,38.78
2023-04-15T16:01:40.009Z,37.67
2023-04-15T16:04:11.837Z,39.05
2023-04-15T16:06:42.376Z,40.17
2023-04-15T16:09:12.258Z,40.38
2023-04-15T16:11:42.913Z,40.63
2023-04-15T16:14:12.756Z,41.97
2023-04-15T16:16:42.648Z,41.75
2023-04-15T16:19:13.050Z,41.63
2023-04-15T16:21:42.951Z,45.50
2023-04-15T16:24:15.424Z,42.25
2023-04-15T16:26:45.095Z,44.17
2023-04-15T16:29:14.786Z,41.10
2023-04-15T16:31:44.435Z,41.72
2023-04-15T16:34:14.236Z,42.75
2023-04-15T16:36:44.006Z,41.67
2023-04-15T16:39:13.698Z,40.90
2023-04-15T16:41:44.427Z,42.35
2023-04-15T16:44:14.043Z,41.22
2023-04-15T16:46:43.720Z,43.53
2023-04-15T16:49:13.516Z,39.90
2023-04-15T16:51:43.214Z,40.45
2023-04-15T16:54:13.385Z,40.72
2023-04-15T16:56:43.127Z,41.78
2023-04-15T16:59:15.500Z,41.33
2023-04-15T17:01:45.931Z,40.63
2023-04-15T17:04:15.844Z,40.05
2023-04-15T17:06:51.935Z,41.80
2023-04-15T17:09:21.587Z,41.88
2023-04-15T17:11:51.256Z,42.88
2023-04-15T17:14:24.027Z,43.33
2023-04-15T17:16:53.612Z,44.17
2023-04-15T17:19:32.576Z,44.80
2023-04-15T17:22:02.736Z,44.35
2023-04-15T17:24:35.148Z,43.97
2023-04-15T17:27:04.813Z,42.65
2023-04-15T17:29:35.089Z,46.60
2023-04-15T17:32:05.248Z,46.85
2023-04-15T17:34:49.819Z,46.92
2023-04-15T17:37:20.590Z,46.35
2023-04-15T17:39:50.251Z,48.20
2023-04-15T17:42:20.021Z,48.38
2023-04-15T17:44:49.669Z,50.70
2023-04-15T17:47:21.957Z,52.90
2023-04-15T17:49:51.505Z,49.55
2023-04-15T17:52:21.747Z,51.97
2023-04-15T17:54:51.810Z,52.55
2023-04-15T17:57:22.480Z,47.85
2023-04-15T17:59:52.285Z,50.22
2023-04-15T18:02:22.238Z,48.70
2023-04-15T18:04:52.699Z,49.95
2023-04-15T18:07:22.753Z,54.22
2023-04-15T18:09:52.554Z,51.80
2023-04-15T18:12:22.294Z,50.20
2023-04-15T18:14:52.009Z,50.95
2023-04-15T18:17:21.977Z,48.45
2023-04-15T18:19:55.010Z,51.13
2023-04-15T18:22:27.405Z,49.85
2023-04-15T18:24:59.285Z,48.10
2023-04-15T18:27:30.090Z,45.20
2023-04-15T18:29:59.907Z,46.28
2023-04-15T18:32:31.937Z,46.40
2023-04-15T18:35:05.945Z,46.28
2023-04-15T18:37:35.636Z,45.28
2023-04-15T18:40:05.368Z,46.55
2023-04-15T18:42:35.031Z,48.13
2023-04-15T18:45:05.339Z,44.72
2023-04-15T18:47:35.341Z,42.35
2023-04-15T18:50:05.218Z,46.22
2023-04-15T18:52:35.670Z,45.78
2023-04-15T18:55:12.417Z,44.38
2023-04-15T18:57:45.811Z,46.78
2023-04-15T19:00:20.125Z,49.67
2023-04-15T19:02:50.012Z,45.28
2023-04-15T19:05:19.926Z,42.65
2023-04-15T19:07:49.940Z,44.55
2023-04-15T19:10:19.684Z,44.97
2023-04-15T19:12:49.256Z,46.63
2023-04-15T19:15:19.054Z,46.47
2023-04-15T19:17:48.942Z,45.88
2023-04-15T19:20:19.348Z,43.20
2023-04-15T19:22:49.097Z,45.78
2023-04-15T19:25:18.853Z,42.88
2023-04-15T19:27:49.045Z,42.90
2023-04-15T19:30:19.124Z,47.67
2023-04-15T19:32:48.907Z,45.83
2023-04-15T19:35:19.026Z,45.80
2023-04-15T19:37:49.884Z,49.70
2023-04-15T19:40:19.584Z,48.22
2023-04-15T19:42:49.318Z,45.58
2023-04-15T19:45:19.018Z,53.65
2023-04-15T19:47:48.691Z,48.60
2023-04-15T19:50:18.543Z,47.30
2023-04-15T19:52:48.551Z,49.65
2023-04-15T19:55:18.467Z,47.50
2023-04-15T19:57:48.159Z,41.38
2023-04-15T20:00:23.320Z,42.63
2023-04-15T20:02:53.158Z,41.20
2023-04-15T20:05:22.989Z,37.85
2023-04-15T20:07:56.354Z,38.95
2023-04-15T20:10:27.226Z,36.70
2023-04-15T20:12:57.194Z,40.38
2023-04-15T20:15:26.870Z,39.92
2023-04-15T20:17:56.592Z,39.53
2023-04-15T20:20:26.316Z,38.22
2023-04-15T20:22:56.342Z,39.67
2023-04-15T20:25:26.059Z,37.30
2023-04-15T20:27:55.736Z,38.40
2023-04-15T20:30:25.365Z,39.05
2023-04-15T20:32:55.038Z,35.88
2023-04-15T20:35:24.926Z,37.05
2023-04-15T20:37:54.776Z,36.67
2023-04-15T20:40:27.395Z,39.15
2023-04-15T20:42:57.485Z,37.20
2023-04-15T20:45:27.275Z,38.90
2023-04-15T20:47:57.653Z,37.90
2023-04-15T20:50:27.398Z,38.80
2023-04-15T20:52:57.699Z,36.33
2023-04-15T20:55:28.956Z,39.10
2023-04-15T20:58:02.963Z,42.30
2023-04-15T21:00:34.521Z,38.53
2023-04-15T21:03:07.442Z,38.25
2023-04-15T21:05:40.140Z,36.28
2023-04-15T21:08:11.259Z,36.05
2023-04-15T21:10:44.011Z,39.92
2023-04-15T21:13:14.688Z,37.83
2023-04-15T21:15:45.260Z,38.60
2023-04-15T21:18:17.941Z,36.83
2023-04-15T21:20:48.037Z,35.58
2023-04-15T21:23:17.617Z,39.90
2023-04-15T21:25:47.371Z,37.53
2023-04-15T21:28:17.065Z,40.35
2023-04-15T21:30:47.432Z,39.58
2023-04-15T21:33:19.897Z,35.92
2023-04-15T21:35:49.621Z,35.60
2023-04-15T21:38:20.800Z,37.13
2023-04-15T21:40:52.771Z,38.10
2023-04-15T21:43:27.478Z,35.50
2023-04-15T21:48:47.795Z,39.45
2023-04-15T21:51:17.792Z,37.55
2023-04-15T21:53:50.302Z,38.90
2023-04-15T21:56:21.754Z,37.03
2023-04-15T21:58:51.495Z,38.05
2023-04-15T22:01:21.189Z,38.28
2023-04-15T22:03:51.776Z,36.92
2023-04-15T22:06:28.611Z,38.50
2023-04-15T22:08:58.261Z,37.13
2023-04-15T22:11:28.825Z,39.90
2023-04-15T22:13:59.715Z,36.33
2023-04-15T22:16:30.142Z,36.90
2023-04-15T22:19:02.651Z,39.92
2023-04-15T22:21:33.348Z,41.85
2023-04-15T22:24:32.973Z,37.53
2023-04-15T22:26:53.001Z,37.10
2023-04-15T22:29:22.720Z,39.72
2023-04-15T22:31:53.667Z,36.83
2023-04-15T22:34:23.560Z,38.90
2023-04-15T22:36:57.148Z,36.67
2023-04-15T22:39:29.464Z,36.67
2023-04-15T22:42:00.252Z,37.00
2023-04-15T22:44:29.882Z,40.35
2023-04-15T22:46:59.533Z,38.95
2023-04-15T22:49:29.307Z,38.20
2023-04-15T22:52:02.321Z,36.90
2023-04-15T22:54:32.988Z,37.67
2023-04-15T22:57:02.683Z,36.58
2023-04-15T22:59:32.485Z,36.47
2023-04-15T23:02:02.412Z,37.33
2023-04-15T23:04:32.658Z,36.15
2023-04-15T23:07:02.444Z,35.83
2023-04-15T23:09:32.754Z,37.35
2023-04-15T23:12:02.938Z,35.45
2023-04-15T23:14:34.782Z,34.78
2023-04-15T23:17:04.377Z,35.95
2023-04-15T23:19:35.255Z,35.92
2023-04-15T23:22:05.439Z,35.08
2023-04-15T23:24:35.127Z,36.13
2023-04-15T23:27:07.543Z,35.75
2023-04-15T23:29:37.933Z,36.28
2023-04-15T23:32:08.649Z,35.15
2023-04-15T23:34:38.311Z,35.35
2023-04-15T23:37:08.017Z,35.78
2023-04-15T23:39:37.839Z,35.65
2023-04-15T23:42:13.257Z,35.08
2023-04-15T23:44:42.858Z,38.13
2023-04-15T23:47:15.650Z,34.63
2023-04-15T23:49:45.284Z,38.75
2023-04-15T23:52:14.978Z,34.83
2023-04-15T23:54:51.373Z,35.70
2023-04-15T23:57:21.075Z,37.97
2023-04-15T23:59:50.891Z,34.90
